Time;durP1;ratioP1;P1;durP2;ratioP2;P2;SDS_P1;SDS_P2;PMS_P1;PMS_P2;Temp;Humidity;BMP_temperature;BMP_pressure;BME280_temperature;BME280_humidity;BME280_pressure;Samples;Min_cycle;Max_cycle;Signal;HPM_P1;HPM_P2
2022/03/06 00:00:17;;;;;;;30.47;18.10;;;;;;;-144.19;100.00;79123.22;6183240;23;20043;-86
2022/03/06 00:02:43;;;;;;;29.33;19.77;;;;;;;-144.19;100.00;79115.34;6181144;23;20245;-85
2022/03/06 00:05:10;;;;;;;26.83;18.85;;;;;;;-144.19;100.00;79115.34;6182286;23;20032;-87
2022/03/06 00:07:37;;;;;;;28.42;19.48;;;;;;;-144.19;100.00;79115.34;6183158;23;20020;-86
2022/03/06 00:10:05;;;;;;;31.17;20.33;;;;;;;-144.19;100.00;79119.28;6182309;23;20316;-88
2022/03/06 00:12:37;;;;;;;31.40;19.88;;;;;;;-144.19;100.00;79127.16;6182765;23;20036;-85
2022/03/06 00:15:05;;;;;;;31.05;21.05;;;;;;;-144.19;100.00;79119.28;6157904;23;20084;-86
2022/03/06 00:17:31;;;;;;;31.38;21.75;;;;;;;-144.19;100.00;79119.28;6181814;23;20021;-87
2022/03/06 00:20:00;;;;;;;33.83;22.25;;;;;;;-144.19;100.00;79133.06;6181931;23;20112;-88
2022/03/06 00:22:27;;;;;;;33.70;21.63;;;;;;;-144.19;100.00;79115.34;6156532;23;20065;-86
2022/03/06 00:24:56;;;;;;;32.25;20.45;;;;;;;-144.19;100.00;79119.28;6183840;23;20021;-87
2022/03/06 00:27:22;;;;;;;32.38;21.50;;;;;;;-144.19;100.00;79131.09;6157411;23;20104;-86
2022/03/06 00:29:49;;;;;;;29.20;20.23;;;;;;;-144.19;100.00;79127.16;6183498;23;20017;-87
2022/03/06 00:32:15;;;;;;;32.77;22.10;;;;;;;-144.19;100.00;79115.34;6182494;23;20308;-86
2022/03/06 00:34:42;;;;;;;34.37;21.40;;;;;;;-144.19;100.00;79123.22;6182139;23;20021;-87
2022/03/06 00:37:08;;;;;;;30.30;20.23;;;;;;;-144.19;100.00;79123.22;6181879;23;20580;-88
2022/03/06 00:39:36;;;;;;;29.70;21.33;;;;;;;-144.19;100.00;79137.00;6183465;23;20049;-85
2022/03/06 00:42:02;;;;;;;31.88;20.67;;;;;;;-144.19;100.00;79121.25;6155584;23;20021;-86
2022/03/06 00:44:31;;;;;;;36.33;22.85;;;;;;;-144.19;100.00;79121.25;6181599;23;20099;-87
2022/03/06 00:46:58;;;;;;;35.05;22.17;;;;;;;-144.19;100.00;79138.97;6183840;23;20025;-87
2022/03/06 00:49:24;;;;;;;36.70;22.07;;;;;;;-144.19;100.00;79127.16;6182026;23;20104;-86
2022/03/06 00:51:51;;;;;;;33.40;22.02;;;;;;;-144.19;100.00;79152.75;6180490;23;20029;-88
2022/03/06 00:54:17;;;;;;;35.08;21.77;;;;;;;-144.19;100.00;79170.50;6182532;23;20028;-88
2022/03/06 00:56:44;;;;;;;32.90;21.80;;;;;;;-144.19;100.00;79164.59;6181878;23;20041;-88
2022/03/06 00:59:10;;;;;;;34.07;20.73;;;;;;;-144.19;100.00;79178.38;6181994;23;20373;-89
2022/03/06 01:01:37;;;;;;;36.42;22.17;;;;;;;-144.19;100.00;79168.53;6182602;23;20263;-88
2022/03/06 01:04:04;;;;;;;30.27;20.42;;;;;;;-144.19;100.00;79158.69;6181218;23;20033;-87
2022/03/06 01:06:30;;;;;;;30.50;19.50;;;;;;;-144.19;100.00;79178.38;6182929;23;20369;-87
2022/03/06 01:08:57;;;;;;;32.63;20.23;;;;;;;-144.19;100.00;79182.31;6157300;23;20047;-89
2022/03/06 01:11:24;;;;;;;34.42;21.88;;;;;;;-144.19;100.00;79180.34;6181253;23;20025;-87
2022/03/06 01:13:50;;;;;;;31.98;20.15;;;;;;;-144.19;100.00;79184.28;6155863;23;20184;-87
2022/03/06 01:16:16;;;;;;;32.17;20.83;;;;;;;-144.19;100.00;79182.31;6181306;23;20017;-88
2022/03/06 01:18:43;;;;;;;32.90;21.92;;;;;;;-144.19;100.00;79184.28;6181741;23;20016;-87
2022/03/06 01:21:10;;;;;;;31.17;21.55;;;;;;;-144.19;100.00;79186.25;6181612;23;20027;-88
2022/03/06 01:23:36;;;;;;;33.70;21.67;;;;;;;-144.19;100.00;79202.00;6180485;23;20490;-89
2022/03/06 01:26:03;;;;;;;34.57;21.23;;;;;;;-144.19;100.00;79198.06;6157406;23;20025;-87
2022/03/06 01:28:30;;;;;;;30.77;20.30;;;;;;;-144.19;100.00;79186.25;6181459;23;20244;-87
2022/03/06 01:30:56;;;;;;;30.65;21.13;;;;;;;-144.19;100.00;79174.44;6156325;23;20021;-87
2022/03/06 01:33:23;;;;;;;32.43;20.90;;;;;;;-144.19;100.00;79190.19;6181592;23;20044;-87
2022/03/06 01:35:50;;;;;;;34.80;22.33;;;;;;;-144.19;100.00;79190.19;6181501;23;20597;-88
2022/03/06 01:38:16;;;;;;;32.90;22.25;;;;;;;-144.19;100.00;79190.19;6181383;23;20032;-86
2022/03/06 01:40:43;;;;;;;30.60;21.17;;;;;;;-144.19;100.00;79162.63;6181350;23;20021;-87
2022/03/06 01:43:09;;;;;;;37.20;22.35;;;;;;;-144.19;100.00;79156.72;6156118;23;20104;-89
2022/03/06 01:45:36;;;;;;;34.17;21.73;;;;;;;-144.19;100.00;79156.72;6182601;23;20385;-88
2022/03/06 01:48:08;;;;;;;37.67;21.33;;;;;;;-144.19;100.00;79168.53;6183123;23;20021;-88
2022/03/06 01:50:36;;;;;;;37.40;22.15;;;;;;;-144.19;100.00;79166.56;6181090;23;20072;-88
2022/03/06 01:53:06;;;;;;;36.80;23.67;;;;;;;-144.19;100.00;79150.78;6155800;23;20096;-88
2022/03/06 01:55:33;;;;;;;36.90;22.77;;;;;;;-144.19;100.00;79158.69;6183322;23;20039;-87
2022/03/06 01:58:03;;;;;;;39.92;23.17;;;;;;;-144.19;100.00;79148.81;6181428;23;20032;-88
2022/03/06 02:00:34;;;;;;;34.20;20.50;;;;;;;-144.19;100.00;79129.13;6181996;23;20027;-87
2022/03/06 02:03:01;;;;;;;33.90;21.30;;;;;;;-144.19;100.00;79133.06;6180294;23;20025;-89
2022/03/06 02:05:27;;;;;;;34.88;22.10;;;;;;;-144.19;100.00;79135.03;6181892;23;20095;-88
2022/03/06 02:07:54;;;;;;;34.60;22.38;;;;;;;-144.19;100.00;79140.94;6181233;23;20021;-86
2022/03/06 02:10:20;;;;;;;32.90;21.20;;;;;;;-144.19;100.00;79127.16;6180967;23;20536;-86
2022/03/06 02:12:47;;;;;;;37.08;21.73;;;;;;;-144.19;100.00;79123.22;6181749;23;20025;-89
2022/03/06 02:15:16;;;;;;;30.52;20.20;;;;;;;-144.19;100.00;79129.13;6181311;23;20621;-88
2022/03/06 02:17:43;;;;;;;35.63;21.38;;;;;;;-144.19;100.00;79140.94;6182068;23;20356;-86
2022/03/06 02:20:11;;;;;;;;;;;;;;;-144.19;100.00;79131.09;6183005;23;20023;-86
2022/03/06 02:22:40;;;;;;;32.25;21.83;;;;;;;-144.19;100.00;79119.28;6157805;23;19995;-89
2022/03/06 02:25:19;;;;;;;36.40;22.30;;;;;;;-144.19;100.00;79121.25;6184956;23;20025;-88
2022/03/06 02:27:47;;;;;;;34.05;22.00;;;;;;;-144.19;100.00;79123.22;6158266;23;20017;-87
2022/03/06 02:30:17;;;;;;;34.85;21.48;;;;;;;-144.19;100.00;79133.06;6158010;23;20390;-86
2022/03/06 02:32:45;;;;;;;35.25;22.40;;;;;;;-144.19;100.00;79135.03;6183875;23;20031;-88
2022/03/06 02:35:12;;;;;;;35.58;22.02;;;;;;;-144.19;100.00;79129.13;6183379;23;20107;-86
2022/03/06 02:37:39;;;;;;;33.20;22.10;;;;;;;-144.19;100.00;79119.28;6184814;23;20021;-86
2022/03/06 02:40:08;;;;;;;34.28;22.10;;;;;;;-144.19;100.00;79117.31;6157958;23;20027;-86
2022/03/06 02:42:37;;;;;;;33.47;21.90;;;;;;;-144.19;100.00;79111.41;6182335;23;20136;-88
2022/03/06 02:45:24;;;;;;;31.23;21.73;;;;;;;-144.19;100.00;79095.66;6183228;23;20024;-89
2022/03/06 02:47:53;;;;;;;33.47;22.15;;;;;;;-144.19;100.00;79103.53;6183287;23;20345;-85
2022/03/06 02:50:25;;;;;;;34.65;23.00;;;;;;;-144.19;100.00;79121.25;6183082;23;20021;-86
2022/03/06 02:52:53;;;;;;;32.75;21.70;;;;;;;-144.19;100.00;79127.16;6183857;23;20104;-86
2022/03/06 02:55:20;;;;;;;34.05;21.92;;;;;;;-144.19;100.00;79127.16;6185351;23;20782;-88
2022/03/06 02:57:47;;;;;;;41.60;24.65;;;;;;;-144.19;100.00;79142.91;6183253;23;20353;-85
2022/03/06 03:00:17;;;;;;;35.28;21.85;;;;;;;-144.19;100.00;79138.97;6182915;23;20507;-86
2022/03/06 03:02:44;;;;;;;32.20;22.02;;;;;;;-144.19;100.00;79148.81;6157191;23;20031;-86
2022/03/06 03:05:11;;;;;;;34.75;21.27;;;;;;;-144.19;100.00;79135.03;6184682;23;20041;-85
2022/03/06 03:07:39;;;;;;;34.15;21.80;;;;;;;-144.19;100.00;79142.91;6158278;23;20027;-89
2022/03/06 03:10:08;;;;;;;35.47;21.25;;;;;;;-144.19;100.00;79142.91;6182854;23;20021;-86
2022/03/06 03:12:34;;;;;;;31.77;20.00;;;;;;;-144.19;100.00;79135.03;6183143;23;20017;-86
2022/03/06 03:15:01;;;;;;;32.40;20.33;;;;;;;-144.19;100.00;79135.03;6182893;23;20080;-87
2022/03/06 03:17:28;;;;;;;33.47;21.48;;;;;;;-144.19;100.00;79154.72;6182366;23;20438;-86
2022/03/06 03:19:54;;;;;;;27.90;19.55;;;;;;;-144.19;100.00;79156.72;6157196;23;20043;-86
2022/03/06 03:22:21;;;;;;;32.70;19.92;;;;;;;-144.19;100.00;79150.78;6181992;23;20207;-86
2022/03/06 03:24:47;;;;;;;29.70;19.88;;;;;;;-144.19;100.00;79156.72;6184578;23;20021;-88
2022/03/06 03:27:13;;;;;;;28.90;20.30;;;;;;;-144.19;100.00;79174.44;6158409;23;20036;-88
2022/03/06 03:29:40;;;;;;;31.90;20.13;;;;;;;-144.19;100.00;79178.38;6182356;23;20017;-87
2022/03/06 03:32:07;;;;;;;30.25;20.23;;;;;;;-144.19;100.00;79178.38;6182687;23;20505;-88
2022/03/06 03:34:34;;;;;;;28.02;18.95;;;;;;;-144.19;100.00;79186.25;6183089;23;20025;-88
2022/03/06 03:37:00;;;;;;;30.70;21.67;;;;;;;-144.19;100.00;79186.25;6158352;23;20021;-87
2022/03/06 03:39:27;;;;;;;32.63;20.33;;;;;;;-144.19;100.00;79186.25;6182892;23;20445;-88
2022/03/06 03:41:53;;;;;;;29.52;19.30;;;;;;;-144.19;100.00;79186.25;6182756;23;20237;-88
2022/03/06 03:44:20;;;;;;;29.70;18.83;;;;;;;-144.19;100.00;79184.28;6182591;23;20031;-87
2022/03/06 03:46:46;;;;;;;31.38;18.25;;;;;;;-144.19;100.00;79184.28;6183377;23;20091;-87
2022/03/06 03:49:14;;;;;;;29.47;18.93;;;;;;;-144.19;100.00;79198.06;6181894;23;20017;-88
2022/03/06 03:51:42;;;;;;;28.65;18.85;;;;;;;-144.19;100.00;79207.91;6183477;23;20025;-86
2022/03/06 03:54:08;;;;;;;28.95;20.13;;;;;;;-144.19;100.00;79209.88;6183360;23;20028;-89
2022/03/06 03:56:35;;;;;;;29.45;18.02;;;;;;;-144.19;100.00;79207.91;6184424;23;20025;-87
2022/03/06 03:59:01;;;;;;;27.13;18.95;;;;;;;-144.19;100.00;79209.88;6184495;23;20104;-87
2022/03/06 04:01:28;;;;;;;23.70;17.80;;;;;;;-144.19;100.00;79221.72;6182319;23;20035;-88
2022/03/06 04:03:54;;;;;;;28.98;18.15;;;;;;;-144.19;100.00;79209.88;6181035;23;20017;-88
2022/03/06 04:06:21;;;;;;;29.73;17.67;;;;;;;-144.19;100.00;79233.53;6158344;23;20021;-87
2022/03/06 04:08:47;;;;;;;26.95;17.95;;;;;;;-144.19;100.00;79217.75;6158115;23;20358;-87
2022/03/06 04:11:14;;;;;;;29.67;19.87;;;;;;;-144.19;100.00;79217.75;6158388;23;20017;-87
2022/03/06 04:13:40;;;;;;;27.20;17.70;;;;;;;-144.19;100.00;79245.34;6181855;23;20249;-88
2022/03/06 04:16:07;;;;;;;25.35;17.30;;;;;;;-144.19;100.00;79249.28;6183286;23;20388;-86
2022/03/06 04:18:33;;;;;;;;;;;;;;;-144.19;100.00;79245.34;6184608;23;20095;-86
2022/03/06 04:21:00;;;;;;;29.70;17.00;;;;;;;-144.19;100.00;79249.28;6183220;23;20363;-88
2022/03/06 04:23:26;;;;;;;28.40;18.63;;;;;;;-144.19;100.00;79276.84;6181785;23;20024;-87
2022/03/06 04:25:53;;;;;;;24.30;16.73;;;;;;;-144.19;100.00;79292.63;6183022;23;20028;-88
2022/03/06 04:28:19;;;;;;;26.40;17.93;;;;;;;-144.19;100.00;79290.66;6182614;23;20243;-88
2022/03/06 04:30:45;;;;;;;25.73;18.20;;;;;;;-144.19;100.00;79296.56;6182809;23;20589;-88
2022/03/06 04:33:12;;;;;;;27.58;18.50;;;;;;;-144.19;100.00;79304.44;6181580;23;20029;-89
2022/03/06 04:35:38;;;;;;;23.70;17.83;;;;;;;-144.19;100.00;79300.50;6184384;23;20021;-89
2022/03/06 04:38:05;;;;;;;25.90;17.27;;;;;;;-144.19;100.00;79312.31;6158205;23;20241;-88
2022/03/06 04:40:31;;;;;;;27.90;18.13;;;;;;;-144.19;100.00;79298.53;6182026;23;20088;-87
2022/03/06 04:42:58;;;;;;;25.85;16.80;;;;;;;-144.19;100.00;79298.53;6181711;23;20021;-87
2022/03/06 04:45:25;;;;;;;27.57;18.13;;;;;;;-144.19;100.00;79310.34;6182625;23;20016;-88
2022/03/06 04:47:52;;;;;;;28.35;16.20;;;;;;;-144.19;100.00;79310.34;6182147;23;20256;-86
2022/03/06 04:50:18;;;;;;;27.10;17.08;;;;;;;-144.19;100.00;79312.31;6182403;23;20017;-90
2022/03/06 04:52:51;;;;;;;28.55;17.63;;;;;;;-144.19;100.00;79310.34;6183008;23;20021;-88
2022/03/06 04:55:17;;;;;;;23.40;16.23;;;;;;;-144.19;100.00;79322.16;6184238;23;20027;-88
2022/03/06 04:57:46;;;;;;;25.35;16.88;;;;;;;-144.19;100.00;79324.13;6181052;23;20378;-88
2022/03/06 05:00:14;;;;;;;27.42;16.63;;;;;;;-144.19;100.00;79357.63;6179024;23;20160;-88
2022/03/06 05:02:41;;;;;;;25.35;16.55;;;;;;;-144.19;100.00;79373.38;6180757;23;20017;-88
2022/03/06 05:05:09;;;;;;;24.25;15.70;;;;;;;-144.19;100.00;79355.66;6184544;23;20036;-89
2022/03/06 05:07:36;;;;;;;25.60;17.70;;;;;;;-144.19;100.00;79351.72;6182955;23;20028;-88
2022/03/06 05:10:06;;;;;;;25.58;16.42;;;;;;;-144.19;100.00;79343.81;6182750;23;20044;-88
2022/03/06 05:12:33;;;;;;;23.13;15.63;;;;;;;-144.19;100.00;79343.81;6181657;23;20027;-87
2022/03/06 05:14:59;;;;;;;23.08;16.60;;;;;;;-144.19;100.00;79363.53;6182685;23;20035;-89
2022/03/06 05:17:26;;;;;;;25.90;17.80;;;;;;;-144.19;100.00;79328.06;6181938;23;20315;-87
2022/03/06 05:19:52;;;;;;;25.23;16.02;;;;;;;-144.19;100.00;79335.94;6182017;23;20275;-87
2022/03/06 05:22:19;;;;;;;22.77;16.33;;;;;;;-144.19;100.00;79345.81;6182194;23;20028;-88
2022/03/06 05:24:45;;;;;;;25.38;16.58;;;;;;;-144.19;100.00;79345.81;6182083;23;20021;-89
2022/03/06 05:27:11;;;;;;;24.20;15.25;;;;;;;-144.19;100.00;79375.34;6182371;23;20039;-87
2022/03/06 05:29:38;;;;;;;26.67;17.23;;;;;;;-144.19;100.00;79359.59;6158492;23;20027;-89
2022/03/06 05:32:04;;;;;;;24.85;16.95;;;;;;;-144.19;100.00;79357.63;6180619;23;20373;-87
2022/03/06 05:34:31;;;;;;;23.25;13.13;;;;;;;-144.19;100.00;79359.59;6157023;23;20021;-87
2022/03/06 05:36:59;;;;;;;25.60;16.00;;;;;;;-144.19;100.00;79351.72;6157195;23;20032;-89
2022/03/06 05:39:25;;;;;;;24.33;16.38;;;;;;;-144.19;100.00;79377.31;6159443;23;20446;-90
2022/03/06 05:41:51;;;;;;;27.60;17.48;;;;;;;-144.19;100.00;79387.16;6182253;23;20112;-85
2022/03/06 05:44:18;;;;;;;28.47;15.57;;;;;;;-144.19;100.00;79391.09;6181226;23;20362;-87
2022/03/06 05:46:44;;;;;;;26.88;15.95;;;;;;;-144.19;100.00;79367.47;6181901;23;20303;-88
2022/03/06 05:49:14;;;;;;;28.90;16.60;;;;;;;-144.19;100.00;79375.34;6181751;23;20625;-89
2022/03/06 05:51:41;;;;;;;21.23;14.48;;;;;;;-144.19;100.00;79371.41;6182938;23;20459;-88
2022/03/06 05:54:08;;;;;;;27.33;16.45;;;;;;;-144.19;100.00;79359.59;6155851;23;20361;-87
2022/03/06 05:56:35;;;;;;;24.00;15.93;;;;;;;-144.19;100.00;79367.47;6181632;23;20051;-89
2022/03/06 05:59:03;;;;;;;24.08;15.93;;;;;;;-144.19;100.00;79367.47;6183619;23;20043;-87
2022/03/06 06:01:30;;;;;;;30.63;16.63;;;;;;;-144.19;100.00;79361.56;6155182;23;20099;-87
2022/03/06 06:03:57;;;;;;;;;;;;;;;-144.19;100.00;79355.66;6180454;23;20028;-89
2022/03/06 06:06:27;;;;;;;28.02;16.70;;;;;;;-144.19;100.00;79339.88;6157245;23;19983;-88
2022/03/06 06:08:54;;;;;;;23.15;15.80;;;;;;;-144.19;100.00;79332.00;6155931;23;20016;-88
2022/03/06 06:11:21;;;;;;;25.83;15.55;;;;;;;-144.19;100.00;79326.09;6156141;23;20442;-89
2022/03/06 06:13:48;;;;;;;25.23;16.83;;;;;;;-144.19;100.00;79316.25;6180277;23;20032;-88
2022/03/06 06:16:15;;;;;;;27.85;16.88;;;;;;;-144.19;100.00;79320.19;6183625;23;20025;-88
2022/03/06 06:18:41;;;;;;;22.45;15.63;;;;;;;-144.19;100.00;79324.13;6157451;23;20472;-88
2022/03/06 06:21:10;;;;;;;26.42;16.40;;;;;;;-144.19;100.00;79332.00;6155603;23;20023;-86
2022/03/06 06:23:37;;;;;;;25.88;16.48;;;;;;;-144.19;100.00;79335.94;6149315;23;20096;-88
2022/03/06 06:26:04;;;;;;;26.67;16.63;;;;;;;-144.19;100.00;79328.06;6180267;23;20462;-89
2022/03/06 06:28:30;;;;;;;24.38;16.63;;;;;;;-144.19;100.00;79316.25;6180973;23;20448;-89
2022/03/06 06:30:56;;;;;;;25.77;17.33;;;;;;;-144.19;100.00;79304.44;6179548;23;20021;-89
2022/03/06 06:33:23;;;;;;;25.08;16.77;;;;;;;-144.19;100.00;79296.56;6181847;23;20249;-88
2022/03/06 06:35:49;;;;;;;22.48;17.10;;;;;;;-144.19;100.00;79284.75;6183276;23;20043;-88
2022/03/06 06:38:15;;;;;;;24.17;16.97;;;;;;;-144.19;100.00;79276.84;6181348;23;20035;-87
2022/03/06 06:40:42;;;;;;;26.60;16.60;;;;;;;-144.19;100.00;79284.75;6181278;23;20264;-89
2022/03/06 06:43:08;;;;;;;23.57;17.00;;;;;;;-144.19;100.00;79276.84;6182342;23;20447;-89
2022/03/06 06:45:35;;;;;;;22.25;16.35;;;;;;;-144.19;100.00;79268.97;6180246;23;20027;-89
2022/03/06 06:48:01;;;;;;;26.40;17.10;;;;;;;-144.19;100.00;79237.47;6180960;23;20021;-88
2022/03/06 06:50:28;;;;;;;26.92;17.00;;;;;;;-144.19;100.00;79249.28;6183031;23;20017;-87
2022/03/06 06:52:54;;;;;;;23.85;16.20;;;;;;;-144.19;100.00;79253.22;6180652;23;20031;-87
2022/03/06 06:55:25;;;;;;;26.33;17.45;;;;;;;-144.19;100.00;79247.31;6182285;23;20028;-89
2022/03/06 06:58:20;;;;;;;24.23;16.25;;;;;;;-144.19;100.00;79247.31;6160358;23;20017;-93
2022/03/06 07:01:00;;;;;;;33.72;17.02;;;;;;;-144.19;100.00;79245.34;6164324;23;20017;-93
2022/03/06 07:03:40;;;;;;;25.05;18.20;;;;;;;-144.19;100.00;79225.66;6165261;23;20080;-89
2022/03/06 07:06:22;;;;;;;21.50;15.82;;;;;;;-144.19;100.00;79235.50;6161705;23;20029;-91
2022/03/06 07:09:00;;;;;;;26.42;16.83;;;;;;;-144.19;100.00;79221.72;6162964;23;20146;-92
2022/03/06 07:11:27;;;;;;;24.85;16.75;;;;;;;-144.19;100.00;79221.72;6161335;23;20012;-89
2022/03/06 07:13:53;;;;;;;23.63;16.52;;;;;;;-144.19;100.00;79223.69;6159357;23;20100;-90
2022/03/06 07:16:23;;;;;;;23.20;15.32;;;;;;;-144.19;100.00;79217.75;6185260;23;20461;-91
2022/03/06 07:18:50;;;;;;;23.08;16.00;;;;;;;-144.19;100.00;79227.63;6160533;23;20092;-90
2022/03/06 07:21:17;;;;;;;23.33;16.13;;;;;;;-144.19;100.00;79223.69;6169815;23;20025;-91
2022/03/06 07:23:43;;;;;;;27.27;16.17;;;;;;;-144.19;100.00;79221.72;6160336;23;20100;-91
2022/03/06 07:26:10;;;;;;;21.58;15.80;;;;;;;-144.19;100.00;79237.47;6184861;23;20048;-90
2022/03/06 07:28:36;;;;;;;26.15;17.27;;;;;;;-144.19;100.00;79235.50;6185965;23;20049;-90
2022/03/06 07:31:05;;;;;;;25.95;16.77;;;;;;;-144.19;100.00;79225.66;6184397;23;20405;-90
2022/03/06 07:33:32;;;;;;;24.88;16.13;;;;;;;-144.19;100.00;79239.44;6183626;23;20020;-90
2022/03/06 07:35:58;;;;;;;25.05;16.10;;;;;;;-144.19;100.00;79225.66;6160831;23;20028;-88
2022/03/06 07:38:39;;;;;;;24.92;16.10;;;;;;;-144.19;100.00;79223.69;6187485;23;20465;-88
2022/03/06 07:41:05;;;;;;;24.13;15.50;;;;;;;-144.19;100.00;79225.66;6183177;23;20036;-86
2022/03/06 07:43:32;;;;;;;25.20;16.30;;;;;;;-144.19;100.00;79205.94;6183484;23;20021;-88
2022/03/06 07:45:59;;;;;;;24.73;16.45;;;;;;;-144.19;100.00;79182.31;6159460;23;20113;-90
2022/03/06 07:48:25;;;;;;;23.90;15.40;;;;;;;-144.19;100.00;79198.06;6157929;23;20021;-87
2022/03/06 07:50:51;;;;;;;21.45;15.73;;;;;;;-144.19;100.00;79192.16;6183031;23;20041;-88
2022/03/06 07:53:25;;;;;;;21.95;15.65;;;;;;;-144.19;100.00;79180.34;6182064;23;20017;-89
2022/03/06 07:55:53;;;;;;;22.23;16.55;;;;;;;-144.19;100.00;79178.38;6183105;23;20393;-90
2022/03/06 07:58:20;;;;;;;24.90;15.82;;;;;;;-144.19;100.00;79182.31;6158467;23;20325;-88
2022/03/06 08:00:46;;;;;;;19.38;13.93;;;;;;;-144.19;100.00;79180.34;6181712;23;20024;-89
2022/03/06 08:03:16;;;;;;;23.13;14.07;;;;;;;-144.19;100.00;79174.44;6182067;23;20044;-89
2022/03/06 08:05:44;;;;;;;18.90;13.07;;;;;;;-144.19;100.00;79186.25;6184250;23;20021;-88
2022/03/06 08:08:11;;;;;;;22.80;14.27;;;;;;;-144.19;100.00;79180.34;6184243;23;20099;-88
2022/03/06 08:10:38;;;;;;;23.70;14.85;;;;;;;-144.19;100.00;79180.34;6183224;23;20020;-88
2022/03/06 08:13:04;;;;;;;23.98;13.52;;;;;;;-144.19;100.00;79162.63;6182120;23;20044;-89
2022/03/06 08:15:31;;;;;;;13.40;9.85;;;;;;;-144.19;100.00;79166.56;6176571;23;20037;-87
2022/03/06 08:17:57;;;;;;;15.90;10.25;;;;;;;-144.19;100.00;79140.94;6183687;23;20109;-88
2022/03/06 08:20:23;;;;;;;23.17;13.75;;;;;;;-144.19;100.00;79138.97;6182445;23;20053;-87
2022/03/06 08:22:50;;;;;;;18.00;13.02;;;;;;;-144.19;100.00;79140.94;6180850;23;20017;-90
2022/03/06 08:25:20;;;;;;;16.55;11.93;;;;;;;-144.19;100.00;79137.00;6182294;23;20052;-86
2022/03/06 08:27:47;;;;;;;18.95;12.70;;;;;;;-144.19;100.00;79148.81;6158293;23;20506;-88
2022/03/06 08:30:14;;;;;;;19.25;11.73;;;;;;;-144.19;100.00;79107.47;6182402;23;20378;-87
2022/03/06 08:32:41;;;;;;;16.65;12.80;;;;;;;-144.19;100.00;79119.28;6179528;23;20021;-87
2022/03/06 08:35:08;;;;;;;15.93;12.15;;;;;;;-144.19;100.00;79107.47;6176520;23;20327;-89
2022/03/06 08:37:35;;;;;;;;;;;;;;;-144.19;100.00;79119.28;6182354;23;20039;-88
2022/03/06 08:40:03;;;;;;;16.55;11.38;;;;;;;-144.19;100.00;79101.56;6181823;23;19972;-90
2022/03/06 08:42:30;;;;;;;16.73;11.43;;;;;;;-144.19;100.00;79099.59;6154771;23;20104;-88
2022/03/06 08:44:56;;;;;;;18.05;11.25;;;;;;;-144.19;100.00;79070.03;6181366;23;20287;-87
2022/03/06 08:47:22;;;;;;;17.00;11.77;;;;;;;-144.19;100.00;79048.38;6180961;23;20024;-87
2022/03/06 08:49:49;;;;;;;15.27;10.48;;;;;;;-144.19;100.00;79060.19;6180720;23;20017;-86
2022/03/06 08:52:15;;;;;;;17.45;11.15;;;;;;;-144.19;100.00;79068.06;6180170;23;20023;-86
2022/03/06 08:54:42;;;;;;;17.80;10.48;;;;;;;-144.19;100.00;79042.47;6182382;23;20096;-87
2022/03/06 08:57:08;;;;;;;23.70;11.90;;;;;;;-144.19;100.00;79032.63;6157390;23;20021;-86
2022/03/06 08:59:35;;;;;;;15.53;11.07;;;;;;;-144.19;100.00;79005.03;6181562;23;20027;-85
2022/03/06 09:02:02;;;;;;;15.88;10.98;;;;;;;-144.19;100.00;79016.84;6180691;23;20024;-87
2022/03/06 09:04:31;;;;;;;17.20;10.23;;;;;;;-144.19;100.00;79010.94;6182427;23;20035;-87
2022/03/06 09:06:58;;;;;;;13.80;9.80;;;;;;;-144.19;100.00;79028.69;6158307;23;20069;-85
2022/03/06 09:09:25;;;;;;;17.52;11.80;;;;;;;-144.19;100.00;79028.69;6154930;23;20021;-85
2022/03/06 09:11:51;;;;;;;18.88;11.13;;;;;;;-144.19;100.00;79010.94;6181760;23;20124;-86
2022/03/06 09:14:18;;;;;;;21.63;12.82;;;;;;;-144.19;100.00;78997.16;6178793;23;20087;-86
2022/03/06 09:16:44;;;;;;;20.00;11.47;;;;;;;-144.19;100.00;78997.16;6180617;23;20044;-86
2022/03/06 09:19:11;;;;;;;17.55;11.38;;;;;;;-144.19;100.00;78985.34;6180255;23;20248;-89
2022/03/06 09:21:38;;;;;;;13.43;8.67;;;;;;;-144.19;100.00;78957.78;6183851;23;20021;-86
2022/03/06 09:24:06;;;;;;;13.00;8.85;;;;;;;-144.19;100.00;78969.59;6181064;23;20035;-87
2022/03/06 09:26:32;;;;;;;11.82;8.77;;;;;;;-144.19;100.00;78949.91;6180828;23;20025;-87
2022/03/06 09:28:59;;;;;;;12.80;8.90;;;;;;;-144.19;100.00;78928.22;6182791;23;20104;-89
2022/03/06 09:31:25;;;;;;;18.07;10.13;;;;;;;-144.19;100.00;78934.13;6181806;23;20767;-87
2022/03/06 09:33:52;;;;;;;14.18;9.65;;;;;;;-144.19;100.00;78890.81;6180440;23;20025;-87
2022/03/06 09:36:38;;;;;;;12.55;8.43;;;;;;;-144.19;100.00;78922.31;6182074;23;20056;-87
2022/03/06 09:39:05;;;;;;;13.03;8.43;;;;;;;-144.19;100.00;78926.25;6156816;23;20017;-88
2022/03/06 09:41:38;;;;;;;11.35;7.95;;;;;;;-144.19;100.00;78865.19;6180420;23;20760;-89
2022/03/06 09:44:08;;;;;;;16.05;9.02;;;;;;;-144.19;100.00;78918.38;6155876;23;20025;-86
2022/03/06 09:46:36;;;;;;;11.55;7.47;;;;;;;-144.19;100.00;78906.56;6184031;23;20060;-88
2022/03/06 09:49:04;;;;;;;9.93;7.38;;;;;;;-144.19;100.00;78871.13;6181697;23;20021;-87
2022/03/06 09:51:38;;;;;;;12.80;7.35;;;;;;;-144.19;100.00;78869.13;6157232;23;20013;-89
2022/03/06 09:54:06;;;;;;;9.23;7.35;;;;;;;-144.19;100.00;78904.59;6181298;23;20060;-88
2022/03/06 09:56:33;;;;;;;9.63;7.10;;;;;;;-144.19;100.00;78863.22;6156616;23;20027;-87
2022/03/06 09:58:59;;;;;;;11.35;7.30;;;;;;;-144.19;100.00;78869.13;6181674;23;20025;-88
2022/03/06 10:01:26;;;;;;;16.77;9.73;;;;;;;-144.19;100.00;78823.84;6182103;23;20089;-88
2022/03/06 10:03:52;;;;;;;11.25;8.43;;;;;;;-144.19;100.00;78831.72;6180703;23;20024;-87
2022/03/06 10:06:19;;;;;;;9.98;6.90;;;;;;;-144.19;100.00;78867.16;6160030;23;20033;-86
2022/03/06 10:08:45;;;;;;;14.47;7.63;;;;;;;-144.19;100.00;78845.50;6185160;23;20060;-88
2022/03/06 10:11:13;;;;;;;10.27;7.17;;;;;;;-144.19;100.00;78815.97;6184929;23;20249;-86
2022/03/06 10:13:44;;;;;;;10.10;7.10;;;;;;;-144.19;100.00;78796.28;6178096;23;20021;-86
2022/03/06 10:16:16;;;;;;;13.27;7.45;;;;;;;-144.19;100.00;78752.94;6157684;23;20029;-86
2022/03/06 10:18:47;;;;;;;9.35;6.05;;;;;;;-144.19;100.00;78752.94;6156401;23;20024;-87
2022/03/06 10:21:18;;;;;;;9.63;5.22;;;;;;;-144.19;100.00;78701.72;6155714;23;20023;-88
2022/03/06 10:23:49;;;;;;;8.90;5.40;;;;;;;-144.19;100.00;78634.78;6180579;23;20120;-86
2022/03/06 10:26:19;;;;;;;9.35;5.55;;;;;;;-144.19;100.00;78619.03;6157767;23;20025;-87
2022/03/06 10:28:57;;;;;;;7.30;5.10;;;;;;;-144.19;100.00;78583.56;6182781;23;20021;-87
2022/03/06 10:31:28;;;;;;;;;;;;;;;-144.19;100.00;78556.00;6150129;23;20028;-86
2022/03/06 10:34:06;;;;;;;10.00;5.68;;;;;;;-144.19;100.00;78481.16;6181656;23;19927;-87
2022/03/06 10:36:38;;;;;;;8.30;5.20;;;;;;;-144.19;100.00;78429.97;6181779;23;20029;-87
2022/03/06 10:39:13;;;;;;;9.05;5.03;;;;;;;-144.19;100.00;78445.72;6184517;23;20025;-90
2022/03/06 10:41:42;;;;;;;8.27;5.78;;;;;;;-144.19;100.00;78274.38;6184321;23;20122;-88
2022/03/06 10:44:10;;;;;;;8.70;4.90;;;;;;;-144.19;100.00;78380.72;6185353;23;20017;-88
2022/03/06 10:46:38;;;;;;;7.25;5.07;;;;;;;-144.19;100.00;78317.72;6185506;23;20032;-89
2022/03/06 10:49:13;;;;;;;9.20;5.22;;;;;;;-144.19;100.00;78370.88;6182835;23;20509;-88
2022/03/06 10:51:47;;;;;;;7.85;4.78;;;;;;;-144.19;100.00;78284.22;6159071;23;20032;-87
2022/03/06 10:54:15;;;;;;;7.97;5.30;;;;;;;-144.19;100.00;78235.00;6183123;23;20487;-86
2022/03/06 10:56:43;;;;;;;6.18;4.50;;;;;;;-144.19;93.54;78260.59;6185124;23;20480;-87
2022/03/06 10:59:21;;;;;;;6.00;4.75;;;;;;;-144.19;94.80;78118.81;6185026;23;20473;-88